Time;durP1;ratioP1;P1;durP2;ratioP2;P2;SDS_P1;SDS_P2;PMS_P1;PMS_P2;Temp;Humidity;BMP_temperature;BMP_pressure;BME280_temperature;BME280_humidity;BME280_pressure;Samples;Min_cycle;Max_cycle;Signal;HPM_P1;HPM_P2
2023/04/02 00:00:28;;;;;;;5.17;3.40;;;12.10;99.90;;;;;;4588645;19;20397;-31
2023/04/02 00:02:22;;;;;;;4.85;3.35;;;12.20;99.90;;;;;;4588079;19;20360;-31
2023/04/02 00:03:58;;;;;;;5.53;3.30;;;12.10;99.90;;;;;;4588846;19;20014;-31
2023/04/02 00:05:50;;;;;;;5.27;3.43;;;12.10;99.90;;;;;;4588417;19;20052;-31
2023/04/02 00:07:32;;;;;;;7.10;3.60;;;11.90;99.90;;;;;;4588811;19;20081;-31
2023/04/02 00:09:14;;;;;;;6.45;3.92;;;11.90;99.90;;;;;;4588338;19;20429;-32
2023/04/02 00:10:46;;;;;;;4.33;2.97;;;11.90;99.90;;;;;;4588117;19;20014;-32
2023/04/02 00:12:20;;;;;;;5.57;3.00;;;12.00;99.90;;;;;;4588386;19;20009;-33
2023/04/02 00:13:53;;;;;;;4.70;3.43;;;12.10;99.90;;;;;;4588398;19;20578;-33
2023/04/02 00:15:27;;;;;;;4.17;2.73;;;12.10;99.90;;;;;;4588558;19;20018;-32
2023/04/02 00:17:00;;;;;;;3.97;3.10;;;12.00;99.90;;;;;;4588288;19;20428;-32
2023/04/02 00:18:32;;;;;;;3.97;2.50;;;12.10;99.90;;;;;;4588823;19;20471;-31
2023/04/02 00:20:07;;;;;;;4.30;3.35;;;12.00;99.90;;;;;;4588198;19;20451;-34
2023/04/02 00:21:40;;;;;;;3.93;2.77;;;12.00;99.90;;;;;;4588104;19;20054;-31
2023/04/02 00:23:13;;;;;;;3.57;2.47;;;12.00;99.90;;;;;;4588379;19;20413;-32
2023/04/02 00:24:45;;;;;;;3.73;2.60;;;12.00;99.90;;;;;;4589676;19;20029;-31
2023/04/02 00:26:23;;;;;;;4.20;2.70;;;12.00;99.90;;;;;;4589141;19;20034;-33
2023/04/02 00:27:55;;;;;;;5.03;2.90;;;12.00;99.90;;;;;;4590286;19;20528;-34
2023/04/02 00:29:27;;;;;;;5.20;2.63;;;12.00;99.90;;;;;;4589234;19;20003;-31
2023/04/02 00:30:59;;;;;;;3.27;2.40;;;12.00;99.90;;;;;;4589979;19;20017;-33
2023/04/02 00:32:33;;;;;;;3.90;2.73;;;12.00;99.90;;;;;;4588999;19;20499;-32
2023/04/02 00:34:06;;;;;;;4.53;2.70;;;12.00;99.90;;;;;;4590094;19;20425;-31
2023/04/02 00:35:37;;;;;;;;;;;12.00;99.90;;;;;;4589538;19;20010;-31
2023/04/02 00:37:17;;;;;;;4.73;2.60;;;12.00;99.90;;;;;;4589080;19;20268;-31
2023/04/02 00:38:48;;;;;;;4.17;3.10;;;12.00;99.90;;;;;;4589088;19;20451;-31
2023/04/02 00:40:24;;;;;;;4.18;3.40;;;12.00;99.90;;;;;;4589664;19;20475;-31
2023/04/02 00:42:05;;;;;;;5.10;2.90;;;12.00;99.90;;;;;;4588885;19;20010;-32
2023/04/02 00:43:38;;;;;;;4.63;2.70;;;12.00;99.90;;;;;;4589867;19;20369;-32
2023/04/02 00:45:20;;;;;;;3.87;2.80;;;12.00;99.90;;;;;;4588733;19;20477;-34
2023/04/02 00:46:51;;;;;;;4.53;2.83;;;11.90;99.90;;;;;;4589159;19;20425;-32
2023/04/02 00:48:32;;;;;;;3.45;2.50;;;12.00;99.90;;;;;;4589224;19;20572;-31
2023/04/02 00:50:13;;;;;;;3.88;2.78;;;12.00;99.90;;;;;;4588847;19;20018;-32
2023/04/02 00:51:59;;;;;;;4.20;2.70;;;11.90;99.90;;;;;;4589159;19;20010;-31
2023/04/02 00:53:30;;;;;;;7.27;3.60;;;11.90;99.90;;;;;;4588765;19;20417;-32
2023/04/02 00:55:21;;;;;;;3.87;3.03;;;12.00;99.90;;;;;;4588819;19;20441;-34
2023/04/02 00:56:54;;;;;;;4.70;2.80;;;12.00;99.90;;;;;;4587477;19;20475;-31
2023/04/02 00:58:28;;;;;;;3.53;3.10;;;12.00;99.90;;;;;;4594635;19;20413;-32
2023/04/02 01:00:10;;;;;;;4.03;2.93;;;12.00;99.90;;;;;;4594628;19;20429;-33
2023/04/02 01:01:43;;;;;;;4.00;2.87;;;12.00;99.90;;;;;;4594377;19;20472;-31
2023/04/02 01:03:16;;;;;;;4.07;2.83;;;12.00;99.90;;;;;;4593800;19;20433;-35
2023/04/02 01:05:13;;;;;;;3.88;2.95;;;12.00;99.90;;;;;;4594043;19;20444;-32
2023/04/02 01:06:52;;;;;;;3.90;2.70;;;11.90;99.90;;;;;;4592381;19;20038;-32
2023/04/02 01:08:41;;;;;;;3.60;2.60;;;11.90;99.90;;;;;;4592331;19;20980;-31
2023/04/02 01:10:36;;;;;;;4.07;2.60;;;11.90;99.90;;;;;;4591673;19;20421;-31
2023/04/02 01:12:12;;;;;;;3.13;2.23;;;11.90;99.90;;;;;;4591830;19;21083;-32
2023/04/02 01:14:08;;;;;;;5.60;2.70;;;12.00;99.90;;;;;;4592356;19;20416;-32
2023/04/02 01:15:48;;;;;;;4.50;2.90;;;11.90;99.90;;;;;;4591663;19;21059;-31
2023/04/02 01:17:29;;;;;;;4.35;2.85;;;12.00;99.90;;;;;;4591761;19;20819;-32
2023/04/02 01:19:51;;;;;;;5.27;2.70;;;11.90;99.90;;;;;;4591836;19;20070;-34
2023/04/02 01:21:51;;;;;;;5.93;3.10;;;11.80;99.90;;;;;;4591709;19;20424;-32
2023/04/02 01:23:25;;;;;;;3.13;2.40;;;11.90;99.90;;;;;;4591747;19;20453;-33
2023/04/02 01:24:58;;;;;;;3.20;2.40;;;11.90;99.90;;;;;;4591292;19;20468;-32
2023/04/02 01:26:38;;;;;;;3.13;2.28;;;11.90;99.90;;;;;;4591759;19;20463;-32
2023/04/02 01:28:26;;;;;;;3.63;2.80;;;11.80;99.90;;;;;;4591971;19;20039;-31
2023/04/02 01:29:57;;;;;;;4.80;3.00;;;11.90;99.90;;;;;;4591435;19;20428;-32
2023/04/02 01:31:29;;;;;;;3.83;2.70;;;11.90;99.90;;;;;;4591793;19;20547;-31
2023/04/02 01:33:02;;;;;;;4.47;3.10;;;11.90;99.90;;;;;;4591552;19;20432;-33
2023/04/02 01:34:35;;;;;;;4.83;2.97;;;11.90;99.90;;;;;;4591513;19;20433;-33
2023/04/02 01:36:10;;;;;;;4.57;2.70;;;12.00;99.90;;;;;;4589929;19;20468;-32
2023/04/02 01:38:21;;;;;;;3.13;2.50;;;12.00;99.90;;;;;;4591731;19;20524;-33
2023/04/02 01:40:01;;;;;;;5.63;3.33;;;12.00;99.90;;;;;;4591524;19;20484;-31
2023/04/02 01:41:37;;;;;;;5.37;3.30;;;12.00;99.90;;;;;;4591355;19;20417;-32
2023/04/02 01:43:33;;;;;;;4.73;3.07;;;12.00;99.90;;;;;;4589225;19;20823;-32
2023/04/02 01:45:13;;;;;;;3.83;2.77;;;12.00;99.90;;;;;;4591189;19;21051;-34
2023/04/02 01:46:47;;;;;;;3.63;2.80;;;12.00;99.90;;;;;;4591199;19;20445;-31
2023/04/02 01:48:23;;;;;;;3.63;2.80;;;12.00;99.90;;;;;;4590139;19;20785;-31
2023/04/02 01:50:30;;;;;;;4.70;3.53;;;12.00;99.90;;;;;;4589808;19;20440;-31
2023/04/02 01:52:01;;;;;;;3.70;3.10;;;11.90;99.90;;;;;;4590801;19;20437;-31
2023/04/02 01:53:35;;;;;;;4.73;3.10;;;11.90;99.90;;;;;;4590899;19;20498;-31
2023/04/02 01:55:09;;;;;;;3.87;2.77;;;11.90;99.90;;;;;;4590864;19;21057;-32
2023/04/02 01:56:41;;;;;;;4.23;3.00;;;11.90;99.90;;;;;;4589831;19;21052;-32
2023/04/02 01:58:13;;;;;;;5.03;3.63;;;11.90;99.90;;;;;;4590906;19;20487;-31
2023/04/02 01:59:45;;;;;;;4.67;3.37;;;11.90;99.90;;;;;;4591082;19;20486;-31
2023/04/02 02:01:20;;;;;;;4.17;3.20;;;11.90;99.90;;;;;;4590657;19;20437;-34
2023/04/02 02:02:52;;;;;;;5.23;3.33;;;11.90;99.90;;;;;;4591089;19;20539;-32
2023/04/02 02:04:24;;;;;;;4.40;3.00;;;11.80;99.90;;;;;;4590841;19;20425;-31
2023/04/02 02:05:57;;;;;;;4.10;3.17;;;11.80;99.90;;;;;;4591001;19;20066;-32
2023/04/02 02:07:30;;;;;;;4.37;3.30;;;11.70;99.90;;;;;;4590705;19;21050;-32
2023/04/02 02:09:04;;;;;;;3.50;2.73;;;11.60;99.90;;;;;;4589869;19;20487;-32
2023/04/02 02:10:36;;;;;;;;;;;11.70;99.90;;;;;;4590503;19;21036;-31
2023/04/02 02:12:12;;;;;;;5.70;3.00;;;11.70;99.90;;;;;;4590247;19;20267;-31
2023/04/02 02:13:51;;;;;;;3.70;3.10;;;11.70;99.90;;;;;;4590757;19;20414;-32
2023/04/02 02:15:24;;;;;;;4.17;2.80;;;11.80;99.90;;;;;;4590833;19;20458;-31
2023/04/02 02:17:00;;;;;;;4.70;3.20;;;11.80;99.90;;;;;;4589075;19;20544;-31
2023/04/02 02:18:33;;;;;;;4.87;3.20;;;11.90;99.90;;;;;;4590790;19;20475;-31
2023/04/02 02:20:11;;;;;;;5.00;3.23;;;11.80;99.90;;;;;;4590978;19;20429;-31
2023/04/02 02:21:47;;;;;;;3.60;3.00;;;11.80;99.90;;;;;;4590528;19;20536;-32
2023/04/02 02:23:19;;;;;;;3.73;3.10;;;11.80;99.90;;;;;;4590414;19;20830;-32
2023/04/02 02:24:50;;;;;;;3.45;3.13;;;11.80;99.90;;;;;;4590275;19;20445;-31
2023/04/02 02:26:23;;;;;;;4.40;3.33;;;11.80;99.90;;;;;;4590423;19;20016;-32
2023/04/02 02:27:59;;;;;;;4.47;3.65;;;11.80;99.90;;;;;;4590786;19;20425;-34
2023/04/02 02:29:30;;;;;;;5.07;3.37;;;11.80;99.90;;;;;;4591527;19;20007;-32
2023/04/02 02:31:04;;;;;;;3.90;2.80;;;11.80;99.90;;;;;;4591414;19;20831;-32
2023/04/02 02:32:40;;;;;;;6.87;3.70;;;11.80;99.90;;;;;;4590928;19;20022;-31
2023/04/02 02:34:23;;;;;;;5.70;3.70;;;11.80;99.90;;;;;;4591335;19;20566;-31
2023/04/02 02:36:06;;;;;;;4.10;3.20;;;11.80;99.90;;;;;;4590277;19;20481;-34
2023/04/02 02:37:42;;;;;;;4.73;3.50;;;11.80;99.90;;;;;;4592164;19;20437;-32
2023/04/02 02:39:24;;;;;;;4.33;3.30;;;11.80;99.90;;;;;;4592315;19;20493;-32
2023/04/02 02:40:59;;;;;;;4.10;3.10;;;11.90;99.90;;;;;;4591229;19;20421;-31
2023/04/02 02:42:38;;;;;;;5.93;3.20;;;11.90;99.90;;;;;;4591466;19;20540;-31
2023/04/02 02:44:16;;;;;;;4.67;3.47;;;11.80;99.90;;;;;;4591331;19;20416;-34
2023/04/02 02:45:48;;;;;;;3.97;3.27;;;11.80;99.90;;;;;;4591170;19;20405;-31
2023/04/02 02:47:27;;;;;;;4.27;3.00;;;11.80;99.90;;;;;;4591454;19;20544;-31
2023/04/02 02:49:01;;;;;;;4.93;3.20;;;11.80;99.90;;;;;;4590664;19;20767;-33
2023/04/02 02:50:35;;;;;;;4.37;3.27;;;11.80;99.90;;;;;;4591839;19;20740;-32
2023/04/02 02:52:20;;;;;;;4.00;2.97;;;11.80;99.90;;;;;;4591130;19;20491;-31
2023/04/02 02:53:53;;;;;;;5.27;3.60;;;11.90;99.90;;;;;;4591112;19;20428;-32
2023/04/02 02:55:35;;;;;;;5.13;3.70;;;11.90;99.90;;;;;;4591332;19;21000;-34
2023/04/02 02:57:10;;;;;;;4.23;3.37;;;11.90;99.90;;;;;;4589566;19;20501;-31
2023/04/02 02:58:42;;;;;;;3.90;3.10;;;11.80;99.90;;;;;;4590902;19;20813;-32
2023/04/02 03:00:15;;;;;;;4.30;3.20;;;11.80;99.90;;;;;;4591070;19;20444;-31
2023/04/02 03:01:47;;;;;;;4.53;3.67;;;11.80;99.90;;;;;;4590893;19;20362;-35
2023/04/02 03:03:21;;;;;;;4.40;3.20;;;11.70;99.90;;;;;;4591414;19;21095;-32
2023/04/02 03:04:57;;;;;;;4.20;3.57;;;11.80;99.90;;;;;;4590369;19;20018;-33
2023/04/02 03:06:29;;;;;;;4.43;3.20;;;11.70;99.90;;;;;;4590824;19;20430;-33
2023/04/02 03:08:01;;;;;;;5.17;3.43;;;11.70;99.90;;;;;;4591717;19;20417;-32
2023/04/02 03:09:35;;;;;;;;;;;11.80;99.90;;;;;;4592117;19;20478;-32
2023/04/02 03:11:34;;;;;;;5.27;3.53;;;11.80;99.90;;;;;;4591326;19;19919;-32
2023/04/02 03:13:18;;;;;;;4.87;3.37;;;11.80;99.90;;;;;;4589506;19;20424;-33
2023/04/02 03:15:17;;;;;;;4.70;3.37;;;11.80;99.90;;;;;;4589494;19;20444;-31
2023/04/02 03:16:50;;;;;;;5.10;3.23;;;11.80;99.90;;;;;;4588445;19;20449;-31
2023/04/02 03:18:40;;;;;;;4.47;3.50;;;11.90;99.90;;;;;;4589642;19;20532;-31
2023/04/02 03:20:16;;;;;;;5.57;3.60;;;11.90;99.90;;;;;;4587559;19;20394;-35
2023/04/02 03:21:50;;;;;;;5.53;3.87;;;11.70;99.90;;;;;;4589521;19;20446;-32
2023/04/02 03:23:36;;;;;;;4.50;3.93;;;11.70;99.90;;;;;;4589548;19;20425;-32
2023/04/02 03:25:29;;;;;;;4.30;3.60;;;11.70;99.90;;;;;;4589323;19;20448;-32
2023/04/02 03:27:14;;;;;;;5.27;3.53;;;11.60;99.90;;;;;;4589482;19;20787;-31
2023/04/02 03:28:51;;;;;;;5.10;3.90;;;11.70;99.90;;;;;;4588368;19;20460;-31
2023/04/02 03:30:24;;;;;;;5.53;4.10;;;11.70;99.90;;;;;;4589160;19;20432;-32
2023/04/02 03:31:56;;;;;;;4.82;3.55;;;11.70;99.90;;;;;;4589102;19;20444;-34
2023/04/02 03:33:34;;;;;;;4.73;4.00;;;11.80;99.90;;;;;;4589298;19;20010;-33
2023/04/02 03:35:18;;;;;;;4.03;3.30;;;11.70;99.90;;;;;;4588665;19;21000;-31
2023/04/02 03:37:01;;;;;;;5.27;4.00;;;11.70;99.90;;;;;;4588407;19;20472;-32
2023/04/02 03:39:11;;;;;;;5.00;3.93;;;11.70;99.90;;;;;;4589055;19;20455;-34
2023/04/02 03:41:09;;;;;;;4.97;4.33;;;11.70;99.90;;;;;;4589002;19;20449;-34
2023/04/02 03:42:50;;;;;;;5.90;3.77;;;11.80;99.90;;;;;;4589308;19;20461;-32
2023/04/02 03:44:49;;;;;;;5.05;3.85;;;11.80;99.90;;;;;;4588630;19;20436;-33
2023/04/02 03:46:37;;;;;;;4.97;3.87;;;11.80;99.90;;;;;;4588979;19;20010;-32
2023/04/02 03:48:44;;;;;;;4.80;3.80;;;11.80;99.90;;;;;;4588755;19;20845;-32
2023/04/02 03:50:17;;;;;;;4.67;3.77;;;11.90;99.90;;;;;;4588227;19;20504;-31
2023/04/02 03:51:54;;;;;;;4.40;3.53;;;11.90;99.90;;;;;;4588749;19;21020;-33
2023/04/02 03:53:28;;;;;;;5.50;3.80;;;11.90;99.90;;;;;;4589649;19;20716;-31
2023/04/02 03:55:00;;;;;;;4.80;4.03;;;11.80;99.90;;;;;;4588924;19;20433;-32
2023/04/02 03:56:38;;;;;;;5.82;4.07;;;11.80;99.90;;;;;;4588192;19;20448;-32
2023/04/02 03:58:31;;;;;;;4.83;3.80;;;11.70;99.90;;;;;;4588593;19;20048;-31
2023/04/02 04:00:13;;;;;;;5.15;3.97;;;11.80;99.90;;;;;;4589111;19;20567;-32
2023/04/02 04:01:47;;;;;;;;;;;11.80;99.90;;;;;;4589471;19;19998;-32
2023/04/02 04:03:25;;;;;;;5.57;4.73;;;11.80;99.90;;;;;;4588519;19;20292;-32
2023/04/02 04:04:58;;;;;;;4.40;3.67;;;11.80;99.90;;;;;;4588712;19;20853;-32
2023/04/02 04:06:31;;;;;;;;;;;11.80;99.90;;;;;;4589407;19;20550;-31
2023/04/02 04:08:07;;;;;;;4.63;3.90;;;11.70;99.90;;;;;;4588813;19;19918;-35
2023/04/02 04:09:38;;;;;;;4.37;3.70;;;11.80;99.90;;;;;;4588371;19;20015;-35
2023/04/02 04:11:15;;;;;;;5.40;4.50;;;11.80;99.90;;;;;;4588513;19;20425;-33
2023/04/02 04:12:53;;;;;;;5.63;4.13;;;11.80;99.90;;;;;;4588933;19;20432;-32
2023/04/02 04:14:31;;;;;;;5.37;4.13;;;11.80;99.90;;;;;;4588667;19;20988;-33
2023/04/02 04:16:11;;;;;;;5.13;4.13;;;11.70;99.90;;;;;;4588853;19;20984;-32
2023/04/02 04:18:09;;;;;;;4.60;3.63;;;11.70;99.90;;;;;;4589477;19;20429;-33
2023/04/02 04:19:46;;;;;;;5.33;4.13;;;11.80;99.90;;;;;;4589641;19;20458;-31
2023/04/02 04:21:29;;;;;;;5.03;4.03;;;11.80;99.90;;;;;;4589292;19;20520;-31
2023/04/02 04:23:29;;;;;;;7.03;4.67;;;11.70;99.90;;;;;;4589756;19;20416;-31
2023/04/02 04:25:04;;;;;;;6.00;4.77;;;11.50;99.90;;;;;;4589245;19;20878;-32
2023/04/02 04:26:48;;;;;;;5.93;3.77;;;11.60;99.90;;;;;;4589540;19;21096;-32
2023/04/02 04:28:30;;;;;;;5.00;4.43;;;11.70;99.90;;;;;;4589224;19;20459;-33
2023/04/02 04:30:13;;;;;;;4.80;4.28;;;11.80;99.90;;;;;;4589087;19;20767;-31
2023/04/02 04:31:45;;;;;;;7.27;5.07;;;11.70;99.90;;;;;;4588671;19;20087;-35
2023/04/02 04:33:22;;;;;;;5.57;4.20;;;11.70;99.90;;;;;;4589928;19;20565;-32
2023/04/02 04:34:57;;;;;;;6.07;5.47;;;11.70;99.90;;;;;;4589381;19;20902;-32
2023/04/02 04:36:34;;;;;;;5.87;5.27;;;11.60;99.90;;;;;;4588028;19;20445;-32
2023/04/02 04:38:26;;;;;;;5.20;4.53;;;11.50;99.90;;;;;;4589072;19;20436;-32
2023/04/02 04:40:06;;;;;;;6.50;5.33;;;11.60;99.90;;;;;;4589079;19;20431;-33
2023/04/02 04:41:37;;;;;;;5.60;4.70;;;11.70;99.90;;;;;;4589166;19;20409;-32
2023/04/02 04:43:15;;;;;;;6.38;5.50;;;11.70;99.90;;;;;;4589504;19;20425;-31
2023/04/02 04:44:55;;;;;;;5.37;4.57;;;11.70;99.90;;;;;;4588895;19;20010;-32
2023/04/02 04:46:44;;;;;;;5.97;4.90;;;11.80;99.90;;;;;;4589027;19;20412;-31
2023/04/02 04:48:29;;;;;;;5.33;4.40;;;11.80;99.90;;;;;;4588694;19;20773;-34
2023/04/02 04:50:06;;;;;;;6.67;5.30;;;11.80;99.90;;;;;;4587843;19;21090;-31
2023/04/02 04:51:56;;;;;;;4.93;4.40;;;11.80;99.90;;;;;;4589185;19;20393;-31
2023/04/02 04:53:29;;;;;;;5.43;4.10;;;11.80;99.90;;;;;;4590661;19;20385;-32
2023/04/02 04:55:00;;;;;;;6.13;4.60;;;11.80;99.90;;;;;;4589688;19;20497;-32
2023/04/02 04:56:31;;;;;;;4.82;3.75;;;11.80;99.90;;;;;;4588447;19;20046;-31
2023/04/02 04:58:18;;;;;;;5.47;4.40;;;11.80;99.90;;;;;;4588807;19;20006;-33
2023/04/02 05:00:11;;;;;;;4.93;4.40;;;11.80;99.90;;;;;;4588800;19;20365;-31
2023/04/02 05:01:59;;;;;;;5.03;4.53;;;11.80;99.90;;;;;;4589526;19;20436;-32
2023/04/02 05:03:42;;;;;;;4.63;3.97;;;11.80;99.90;;;;;;4587294;19;20451;-34
2023/04/02 05:05:36;;;;;;;5.67;4.50;;;11.80;99.90;;;;;;4587898;19;20869;-35
2023/04/02 05:07:14;;;;;;;5.47;4.20;;;11.80;99.90;;;;;;4587743;19;20471;-33
2023/04/02 05:08:48;;;;;;;5.13;4.63;;;11.80;99.90;;;;;;4587775;19;20432;-34
2023/04/02 05:10:40;;;;;;;5.15;4.13;;;11.90;99.90;;;;;;4587910;19;20524;-32
2023/04/02 05:12:34;;;;;;;5.10;4.40;;;11.90;99.90;;;;;;4586918;19;20026;-32
2023/04/02 05:14:11;;;;;;;5.40;4.13;;;12.00;99.90;;;;;;4587223;19;20373;-32
2023/04/02 05:16:04;;;;;;;5.97;4.07;;;12.00;99.90;;;;;;4587498;19;20453;-33
2023/04/02 05:17:51;;;;;;;5.07;3.90;;;11.90;99.90;;;;;;4587673;19;20590;-31
2023/04/02 05:20:00;;;;;;;4.93;4.30;;;11.80;99.90;;;;;;4587074;19;20779;-32
2023/04/02 05:22:02;;;;;;;4.97;4.17;;;11.80;99.90;;;;;;4586922;19;20456;-33
2023/04/02 05:23:53;;;;;;;5.33;4.20;;;11.60;99.90;;;;;;4586815;19;20445;-34
2023/04/02 05:25:29;;;;;;;5.43;3.90;;;11.60;99.90;;;;;;4587091;19;20405;-31
2023/04/02 05:27:04;;;;;;;4.93;4.00;;;11.60;99.90;;;;;;4587191;19;20429;-33
2023/04/02 05:28:51;;;;;;;5.40;3.60;;;11.70;99.90;;;;;;4587016;19;20544;-32
2023/04/02 05:30:22;;;;;;;4.33;3.40;;;11.70;99.90;;;;;;4586237;19;20551;-31
2023/04/02 05:32:12;;;;;;;4.68;3.72;;;11.70;99.90;;;;;;4587846;19;20831;-32
2023/04/02 05:33:45;;;;;;;4.03;3.60;;;11.70;99.90;;;;;;4585136;19;20036;-32
2023/04/02 05:35:17;;;;;;;3.90;3.30;;;11.80;99.90;;;;;;4584933;19;20487;-33
2023/04/02 05:36:49;;;;;;;5.07;3.77;;;11.80;99.90;;;;;;4584268;19;20800;-34
2023/04/02 05:38:22;;;;;;;4.03;3.17;;;11.90;99.90;;;;;;4585128;19;20445;-31
2023/04/02 05:39:56;;;;;;;4.07;3.00;;;11.90;99.90;;;;;;4587487;19;20476;-32
2023/04/02 05:41:35;;;;;;;3.60;3.00;;;11.90;99.90;;;;;;4587261;19;20460;-32
2023/04/02 05:43:08;;;;;;;3.73;3.20;;;11.90;99.90;;;;;;4587872;19;20464;-31
2023/04/02 05:44:53;;;;;;;4.20;3.17;;;11.80;99.90;;;;;;4591464;19;20498;-32
2023/04/02 05:46:26;;;;;;;3.97;3.00;;;11.80;99.90;;;;;;4591901;19;20448;-32
2023/04/02 05:48:00;;;;;;;4.00;3.50;;;11.80;99.90;;;;;;4591257;19;20465;-32
2023/04/02 05:50:11;;;;;;;3.83;3.20;;;11.90;99.90;;;;;;4589862;19;20531;-31
2023/04/02 05:51:46;;;;;;;4.18;3.20;;;11.90;99.90;;;;;;4591880;19;20468;-32
2023/04/02 05:53:23;;;;;;;3.30;2.80;;;12.00;99.90;;;;;;4591619;19;20014;-34
2023/04/02 05:55:01;;;;;;;3.63;3.20;;;12.00;99.90;;;;;;4591359;19;20464;-32
2023/04/02 05:56:38;;;;;;;3.97;3.50;;;12.00;99.90;;;;;;4590229;19;21114;-31
2023/04/02 05:58:35;;;;;;;3.97;3.03;;;11.90;99.90;;;;;;4591280;19;21040;-33
2023/04/02 06:00:11;;;;;;;3.63;3.10;;;12.00;99.90;;;;;;4591592;19;20471;-31
2023/04/02 06:02:06;;;;;;;4.50;3.00;;;12.00;99.90;;;;;;4592820;19;20433;-34
2023/04/02 06:04:08;;;;;;;3.90;2.97;;;12.00;99.90;;;;;;4592841;19;20469;-32
2023/04/02 06:05:41;;;;;;;4.00;3.08;;;11.90;99.90;;;;;;4590103;19;20448;-33
2023/04/02 06:07:27;;;;;;;3.50;3.00;;;12.00;99.90;;;;;;4590514;19;20015;-30
2023/04/02 06:09:00;;;;;;;4.20;3.53;;;11.90;99.90;;;;;;4591301;19;21034;-35
2023/04/02 06:10:34;;;;;;;5.43;4.30;;;11.90;99.90;;;;;;4593245;19;20823;-31
2023/04/02 06:12:23;;;;;;;5.53;4.80;;;11.80;99.90;;;;;;4592552;19;20812;-35
2023/04/02 06:13:55;;;;;;;5.30;4.13;;;11.90;99.90;;;;;;4592910;19;20453;-33
2023/04/02 06:15:28;;;;;;;;;;;11.90;99.90;;;;;;4594097;19;20444;-31
2023/04/02 06:17:00;;;;;;;5.03;4.20;;;11.90;99.90;;;;;;4591022;19;19915;-32
2023/04/02 06:18:34;;;;;;;7.47;6.50;;;11.90;99.90;;;;;;4591632;19;20482;-32
2023/04/02 06:20:06;;;;;;;4.87;4.17;;;11.80;99.90;;;;;;4590386;19;20428;-32
2023/04/02 06:21:44;;;;;;;4.05;3.63;;;11.80;99.90;;;;;;4588232;19;20453;-32
2023/04/02 06:23:22;;;;;;;5.40;4.90;;;11.80;99.90;;;;;;4590799;19;20033;-31
2023/04/02 06:25:05;;;;;;;4.50;3.57;;;11.80;99.90;;;;;;4590165;19;20421;-35
2023/04/02 06:26:38;;;;;;;5.63;4.38;;;11.70;99.90;;;;;;4589429;19;20437;-33
2023/04/02 06:28:16;;;;;;;5.70;5.20;;;11.70;99.90;;;;;;4589336;19;20011;-32
2023/04/02 06:29:51;;;;;;;4.93;4.20;;;11.70;99.90;;;;;;4592442;19;20453;-31
2023/04/02 06:31:48;;;;;;;5.43;3.87;;;11.70;99.90;;;;;;4592303;19;20453;-32
2023/04/02 06:33:19;;;;;;;4.97;3.87;;;11.70;99.90;;;;;;4590107;19;20535;-35
2023/04/02 06:34:51;;;;;;;4.57;3.77;;;11.80;99.90;;;;;;4592156;19;21092;-34
2023/04/02 06:36:25;;;;;;;5.10;4.20;;;11.80;99.90;;;;;;4592005;19;20468;-33
2023/04/02 06:37:58;;;;;;;4.90;4.20;;;11.90;99.90;;;;;;4591879;19;20023;-33
2023/04/02 06:39:29;;;;;;;12.03;10.93;;;11.90;99.90;;;;;;4590927;19;21039;-31
2023/04/02 06:41:04;;;;;;;5.40;4.90;;;12.00;99.90;;;;;;4591877;19;20834;-31
2023/04/02 06:42:36;;;;;;;5.23;4.33;;;12.00;99.90;;;;;;4591227;19;20094;-32
2023/04/02 06:44:16;;;;;;;5.57;4.22;;;12.00;99.90;;;;;;4590934;19;20529;-31
2023/04/02 06:45:48;;;;;;;5.77;5.07;;;12.00;99.90;;;;;;4590557;19;20011;-30
2023/04/02 06:47:36;;;;;;;6.83;6.13;;;12.00;99.90;;;;;;4590208;19;21052;-32
2023/04/02 06:49:15;;;;;;;5.67;4.97;;;12.10;99.90;;;;;;4590331;19;20489;-33
2023/04/02 06:50:55;;;;;;;5.30;3.90;;;12.10;99.90;;;;;;4590915;19;20444;-34
2023/04/02 06:52:36;;;;;;;11.87;9.53;;;12.10;99.90;;;;;;4592688;19;20556;-32
2023/04/02 06:54:17;;;;;;;4.95;3.70;;;12.20;99.90;;;;;;4592978;19;20486;-32
2023/04/02 06:55:57;;;;;;;4.30;3.73;;;12.30;99.90;;;;;;4591679;19;20474;-33
2023/04/02 06:57:31;;;;;;;4.40;3.50;;;12.30;99.90;;;;;;4591247;19;20451;-31
2023/04/02 06:59:03;;;;;;;5.17;4.30;;;12.30;99.90;;;;;;4592001;19;20454;-33
2023/04/02 07:00:39;;;;;;;;;;;12.30;99.90;;;;;;4593160;19;21081;-33
2023/04/02 07:02:32;;;;;;;5.87;4.70;;;12.30;99.90;;;;;;4591141;19;19911;-32
2023/04/02 07:04:03;;;;;;;4.70;3.67;;;12.30;99.90;;;;;;4591792;19;20770;-32
2023/04/02 07:05:35;;;;;;;5.63;4.10;;;12.30;99.90;;;;;;4590606;19;20485;-31
2023/04/02 07:07:07;;;;;;;7.78;5.88;;;12.30;99.90;;;;;;4592107;19;20793;-32
2023/04/02 07:08:39;;;;;;;7.17;5.23;;;12.30;99.90;;;;;;4591726;19;20021;-31
2023/04/02 07:10:11;;;;;;;5.90;4.00;;;12.20;99.90;;;;;;4592212;19;20487;-32
2023/04/02 07:11:42;;;;;;;4.93;3.67;;;12.20;99.90;;;;;;4592520;19;20117;-31
2023/04/02 07:13:18;;;;;;;4.93;3.60;;;12.10;99.90;;;;;;4595075;19;20503;-35
2023/04/02 07:14:51;;;;;;;5.07;3.63;;;12.10;99.90;;;;;;4591779;19;20033;-33
2023/04/02 07:16:26;;;;;;;4.78;3.58;;;12.20;99.90;;;;;;4590341;19;20529;-32
2023/04/02 07:17:58;;;;;;;5.03;4.20;;;12.20;99.90;;;;;;4591271;19;20007;-32
2023/04/02 07:19:29;;;;;;;5.22;3.58;;;12.20;99.90;;;;;;4592444;19;20429;-31
2023/04/02 07:21:02;;;;;;;3.97;3.00;;;12.20;99.90;;;;;;4591439;19;20337;-32
2023/04/02 07:22:34;;;;;;;6.00;4.20;;;12.20;99.90;;;;;;4591583;19;20460;-32
2023/04/02 07:24:07;;;;;;;4.57;3.20;;;12.20;99.90;;;;;;4591683;19;20524;-32
2023/04/02 07:25:38;;;;;;;4.57;3.38;;;12.20;99.90;;;;;;4591975;19;20448;-32
2023/04/02 07:27:12;;;;;;;4.03;3.27;;;12.20;99.90;;;;;;4592062;19;20018;-32
2023/04/02 07:28:45;;;;;;;10.43;6.43;;;12.20;99.90;;;;;;4591410;19;20452;-32
2023/04/02 07:30:18;;;;;;;14.43;9.03;;;12.10;99.90;;;;;;4591618;19;20855;-32
2023/04/02 07:31:52;;;;;;;6.60;4.80;;;12.10;99.90;;;;;;4591653;19;20511;-31
2023/04/02 07:33:27;;;;;;;16.47;12.07;;;12.10;99.90;;;;;;4590141;19;20512;-32
2023/04/02 07:34:59;;;;;;;6.50;4.73;;;12.00;99.90;;;;;;4591180;19;20441;-33
2023/04/02 07:36:30;;;;;;;4.63;4.13;;;12.00;99.90;;;;;;4590015;19;20510;-32
2023/04/02 07:38:02;;;;;;;6.70;3.70;;;11.90;99.90;;;;;;4592141;19;20014;-32
2023/04/02 07:39:34;;;;;;;;;;;11.90;99.90;;;;;;4593983;19;20515;-32
2023/04/02 07:41:05;;;;;;;7.87;5.07;;;11.90;99.90;;;;;;4593211;19;19936;-31
2023/04/02 07:42:37;;;;;;;6.00;3.90;;;12.00;99.90;;;;;;4593200;19;20911;-31
2023/04/02 07:44:09;;;;;;;5.50;3.93;;;11.90;99.90;;;;;;4592966;19;20490;-33
2023/04/02 07:45:41;;;;;;;7.82;5.68;;;11.90;99.90;;;;;;4593351;19;20453;-32
2023/04/02 07:47:12;;;;;;;5.90;4.65;;;11.90;99.90;;;;;;4591676;19;20010;-31
2023/04/02 07:48:44;;;;;;;;;;;11.90;99.90;;;;;;4594380;19;20007;-31
2023/04/02 07:50:15;;;;;;;7.70;4.87;;;11.90;99.90;;;;;;4592965;19;20373;-31
2023/04/02 07:51:46;;;;;;;9.38;6.03;;;11.90;99.90;;;;;;4593129;19;20475;-34
2023/04/02 07:53:36;;;;;;;5.40;3.90;;;11.90;99.90;;;;;;4592990;19;20416;-34
2023/04/02 07:55:09;;;;;;;7.43;4.90;;;11.80;99.90;;;;;;4593317;19;20006;-32
2023/04/02 07:56:41;;;;;;;7.63;4.63;;;11.80;99.90;;;;;;4592359;19;20499;-34
2023/04/02 07:58:13;;;;;;;;;;;11.90;99.90;;;;;;4591895;19;20451;-31
2023/04/02 07:59:45;;;;;;;5.23;3.77;;;11.90;99.90;;;;;;4593057;19;19915;-32
2023/04/02 08:01:24;;;;;;;5.23;3.57;;;11.90;99.90;;;;;;4593244;19;20437;-32
2023/04/02 08:02:56;;;;;;;4.83;3.30;;;12.00;99.90;;;;;;4592580;19;20452;-32
2023/04/02 08:04:27;;;;;;;6.50;4.15;;;12.00;99.90;;;;;;4592506;19;20495;-32
2023/04/02 08:05:59;;;;;;;5.15;3.22;;;12.10;99.90;;;;;;4591608;19;20014;-35
2023/04/02 08:07:31;;;;;;;5.07;3.00;;;12.10;99.90;;;;;;4590359;19;20539;-32
2023/04/02 08:09:03;;;;;;;4.47;2.90;;;12.00;99.90;;;;;;4590421;19;20449;-33
2023/04/02 08:10:34;;;;;;;4.15;2.78;;;12.00;99.90;;;;;;4589425;19;20523;-32
2023/04/02 08:12:12;;;;;;;3.63;2.43;;;11.90;99.90;;;;;;4590551;19;20022;-36
2023/04/02 08:13:44;;;;;;;5.13;2.53;;;12.00;99.90;;;;;;4590889;19;20415;-32
2023/04/02 08:15:16;;;;;;;3.63;2.83;;;11.90;99.90;;;;;;4589435;19;20489;-33
2023/04/02 08:16:51;;;;;;;4.50;2.43;;;11.90;99.90;;;;;;4588612;19;20014;-33
2023/04/02 08:18:24;;;;;;;3.43;2.20;;;11.90;99.90;;;;;;4590406;19;20405;-31
2023/04/02 08:19:59;;;;;;;4.65;2.85;;;11.90;99.90;;;;;;4590753;19;20478;-31
2023/04/02 08:21:32;;;;;;;4.30;2.27;;;12.00;99.90;;;;;;4590634;19;20014;-31
2023/04/02 08:23:15;;;;;;;3.60;2.30;;;12.00;99.90;;;;;;4590627;19;20441;-31
2023/04/02 08:24:46;;;;;;;5.25;2.83;;;12.10;99.90;;;;;;4589372;19;20429;-33
2023/04/02 08:26:19;;;;;;;3.30;2.13;;;12.00;99.90;;;;;;4592104;19;20015;-31
2023/04/02 08:27:50;;;;;;;4.93;2.45;;;11.90;99.90;;;;;;4592623;19;20457;-32
2023/04/02 08:29:21;;;;;;;3.15;2.40;;;12.00;99.90;;;;;;4592472;19;20017;-32
2023/04/02 08:30:54;;;;;;;4.57;3.00;;;12.00;99.90;;;;;;4592286;19;20007;-31
2023/04/02 08:32:27;;;;;;;4.07;2.58;;;11.90;99.90;;;;;;4592803;19;20425;-30